sensor_id;sensor_type;location;lat;lon;timestamp;pressure;altitude;pressure_sealevel;temperature;humidity
65173;BME280;51758;52.218;5.172;2022-11-15T00:01:07;100719.34;;;6.02;100.00
65173;BME280;51758;52.218;5.172;2022-11-15T00:03:35;100718.09;;;6.06;100.00
65173;BME280;51758;52.218;5.172;2022-11-15T00:06:04;100719.50;;;6.01;100.00
65173;BME280;51758;52.218;5.172;2022-11-15T00:08:31;100719.94;;;5.96;100.00
65173;BME280;51758;52.218;5.172;2022-11-15T00:11:02;100716.88;;;5.93;100.00
65173;BME280;51758;52.218;5.172;2022-11-15T00:13:30;100711.88;;;5.99;100.00
65173;BME280;51758;52.218;5.172;2022-11-15T00:15:59;100713.34;;;6.02;100.00
65173;BME280;51758;52.218;5.172;2022-11-15T00:18:27;100700.56;;;6.00;100.00
65173;BME280;51758;52.218;5.172;2022-11-15T00:20:55;100711.28;;;6.05;100.00
65173;BME280;51758;52.218;5.172;2022-11-15T00:23:23;100696.19;;;6.01;100.00
65173;BME280;51758;52.218;5.172;2022-11-15T00:25:55;100686.31;;;5.87;100.00
65173;BME280;51758;52.218;5.172;2022-11-15T00:28:25;100690.84;;;6.02;100.00
65173;BME280;51758;52.218;5.172;2022-11-15T00:30:53;100698.25;;;5.97;100.00
65173;BME280;51758;52.218;5.172;2022-11-15T00:33:21;100700.25;;;6.03;100.00
65173;BME280;51758;52.218;5.172;2022-11-15T00:35:49;100700.59;;;6.08;100.00
65173;BME280;51758;52.218;5.172;2022-11-15T00:38:16;100692.06;;;6.16;100.00
65173;BME280;51758;52.218;5.172;2022-11-15T00:40:44;100695.81;;;6.22;100.00
65173;BME280;51758;52.218;5.172;2022-11-15T00:43:11;100698.25;;;6.23;100.00
65173;BME280;51758;52.218;5.172;2022-11-15T00:45:40;100686.31;;;6.30;100.00
65173;BME280;51758;52.218;5.172;2022-11-15T00:48:09;100684.19;;;6.26;100.00
65173;BME280;51758;52.218;5.172;2022-11-15T00:50:36;100688.81;;;6.14;100.00
65173;BME280;51758;52.218;5.172;2022-11-15T00:53:04;100683.66;;;6.22;100.00
65173;BME280;51758;52.218;5.172;2022-11-15T00:55:32;100679.38;;;6.31;100.00
65173;BME280;51758;52.218;5.172;2022-11-15T00:57:59;100686.41;;;6.21;100.00
65173;BME280;51758;52.218;5.172;2022-11-15T01:00:27;100676.91;;;6.29;100.00
65173;BME280;51758;52.218;5.172;2022-11-15T01:02:56;100674.31;;;6.29;100.00
65173;BME280;51758;52.218;5.172;2022-11-15T01:05:24;100673.81;;;6.26;100.00
65173;BME280;51758;52.218;5.172;2022-11-15T01:07:51;100667.06;;;6.33;100.00
65173;BME280;51758;52.218;5.172;2022-11-15T01:10:19;100667.41;;;6.38;100.00
65173;BME280;51758;52.218;5.172;2022-11-15T01:12:47;100666.25;;;6.32;100.00
65173;BME280;51758;52.218;5.172;2022-11-15T01:15:15;100654.59;;;6.36;100.00
65173;BME280;51758;52.218;5.172;2022-11-15T01:17:42;100663.31;;;6.35;100.00
65173;BME280;51758;52.218;5.172;2022-11-15T01:20:12;100661.22;;;6.31;100.00
65173;BME280;51758;52.218;5.172;2022-11-15T01:22:39;100662.88;;;6.40;100.00
65173;BME280;51758;52.218;5.172;2022-11-15T01:25:07;100653.28;;;6.32;100.00
65173;BME280;51758;52.218;5.172;2022-11-15T01:27:34;100660.13;;;6.41;100.00
65173;BME280;51758;52.218;5.172;2022-11-15T01:30:03;100661.91;;;6.41;100.00
65173;BME280;51758;52.218;5.172;2022-11-15T01:32:31;100657.72;;;6.48;100.00
65173;BME280;51758;52.218;5.172;2022-11-15T01:34:59;100654.47;;;6.46;100.00
65173;BME280;51758;52.218;5.172;2022-11-15T01:37:27;100653.50;;;6.47;100.00
65173;BME280;51758;52.218;5.172;2022-11-15T01:39:55;100648.00;;;6.50;100.00
65173;BME280;51758;52.218;5.172;2022-11-15T01:42:23;100649.16;;;6.56;100.00
65173;BME280;51758;52.218;5.172;2022-11-15T01:44:52;100645.47;;;6.58;100.00
65173;BME280;51758;52.218;5.172;2022-11-15T01:47:23;100642.88;;;6.66;100.00
65173;BME280;51758;52.218;5.172;2022-11-15T01:49:55;100630.06;;;6.65;100.00
65173;BME280;51758;52.218;5.172;2022-11-15T01:52:28;100632.03;;;6.71;100.00
65173;BME280;51758;52.218;5.172;2022-11-15T01:55:00;100620.03;;;6.70;100.00
65173;BME280;51758;52.218;5.172;2022-11-15T01:57:29;100628.19;;;6.91;100.00
65173;BME280;51758;52.218;5.172;2022-11-15T01:59:59;100628.66;;;6.87;100.00
65173;BME280;51758;52.218;5.172;2022-11-15T02:02:28;100627.69;;;6.88;100.00
65173;BME280;51758;52.218;5.172;2022-11-15T02:04:56;100625.13;;;6.96;100.00
65173;BME280;51758;52.218;5.172;2022-11-15T02:07:24;100620.91;;;6.95;100.00
65173;BME280;51758;52.218;5.172;2022-11-15T02:09:54;100617.16;;;6.97;100.00
65173;BME280;51758;52.218;5.172;2022-11-15T02:12:22;100612.47;;;7.01;100.00
65173;BME280;51758;52.218;5.172;2022-11-15T02:14:52;100614.09;;;7.02;100.00
65173;BME280;51758;52.218;5.172;2022-11-15T02:17:42;100599.97;;;7.04;100.00
65173;BME280;51758;52.218;5.172;2022-11-15T02:20:48;100596.41;;;7.13;100.00
65173;BME280;51758;52.218;5.172;2022-11-15T02:27:01;100585.06;;;7.23;100.00
65173;BME280;51758;52.218;5.172;2022-11-15T02:29:54;100583.59;;;7.28;100.00
65173;BME280;51758;52.218;5.172;2022-11-15T02:32:31;100575.47;;;7.39;100.00
65173;BME280;51758;52.218;5.172;2022-11-15T02:35:06;100578.41;;;7.44;100.00
65173;BME280;51758;52.218;5.172;2022-11-15T02:37:43;100577.59;;;7.44;100.00
65173;BME280;51758;52.218;5.172;2022-11-15T02:40:17;100574.84;;;7.45;100.00
65173;BME280;51758;52.218;5.172;2022-11-15T02:42:53;100561.19;;;7.43;100.00
65173;BME280;51758;52.218;5.172;2022-11-15T02:45:46;100569.13;;;7.50;100.00
65173;BME280;51758;52.218;5.172;2022-11-15T02:48:17;100556.78;;;7.52;100.00
65173;BME280;51758;52.218;5.172;2022-11-15T02:50:45;100555.50;;;7.56;100.00
65173;BME280;51758;52.218;5.172;2022-11-15T02:53:14;100551.75;;;7.59;100.00
65173;BME280;51758;52.218;5.172;2022-11-15T02:55:45;100547.03;;;7.62;100.00
65173;BME280;51758;52.218;5.172;2022-11-15T03:01:32;100540.84;;;7.71;100.00
65173;BME280;51758;52.218;5.172;2022-11-15T03:04:14;100543.91;;;7.75;100.00
65173;BME280;51758;52.218;5.172;2022-11-15T03:06:49;100542.94;;;7.76;100.00
65173;BME280;51758;52.218;5.172;2022-11-15T03:09:27;100535.94;;;7.76;100.00
65173;BME280;51758;52.218;5.172;2022-11-15T03:12:00;100537.91;;;7.82;100.00
65173;BME280;51758;52.218;5.172;2022-11-15T03:14:34;100546.50;;;7.83;100.00
65173;BME280;51758;52.218;5.172;2022-11-15T03:17:11;100547.59;;;7.88;100.00
65173;BME280;51758;52.218;5.172;2022-11-15T03:19:46;100544.84;;;7.90;100.00
65173;BME280;51758;52.218;5.172;2022-11-15T03:22:17;100544.03;;;7.89;100.00
65173;BME280;51758;52.218;5.172;2022-11-15T03:24:50;100547.13;;;7.93;100.00
65173;BME280;51758;52.218;5.172;2022-11-15T03:27:23;100540.41;;;7.99;100.00
65173;BME280;51758;52.218;5.172;2022-11-15T03:29:55;100548.88;;;8.01;100.00
65173;BME280;51758;52.218;5.172;2022-11-15T03:32:27;100535.06;;;8.00;100.00
65173;BME280;51758;52.218;5.172;2022-11-15T03:34:58;100538.47;;;8.01;100.00
65173;BME280;51758;52.218;5.172;2022-11-15T03:37:33;100548.38;;;8.05;100.00
65173;BME280;51758;52.218;5.172;2022-11-15T03:40:03;100546.59;;;8.06;100.00
65173;BME280;51758;52.218;5.172;2022-11-15T03:42:36;100551.91;;;8.12;100.00
65173;BME280;51758;52.218;5.172;2022-11-15T03:45:12;100542.47;;;8.11;100.00
65173;BME280;51758;52.218;5.172;2022-11-15T03:47:45;100542.78;;;8.16;100.00
65173;BME280;51758;52.218;5.172;2022-11-15T03:50:19;100545.53;;;8.23;100.00
65173;BME280;51758;52.218;5.172;2022-11-15T03:52:48;100539.47;;;8.31;100.00
65173;BME280;51758;52.218;5.172;2022-11-15T03:55:19;100541.63;;;8.35;100.00
65173;BME280;51758;52.218;5.172;2022-11-15T03:57:49;100539.28;;;8.40;100.00
65173;BME280;51758;52.218;5.172;2022-11-15T04:00:18;100526.28;;;8.40;100.00
65173;BME280;51758;52.218;5.172;2022-11-15T04:02:45;100527.19;;;8.55;100.00
65173;BME280;51758;52.218;5.172;2022-11-15T04:05:13;100525.88;;;8.59;100.00
65173;BME280;51758;52.218;5.172;2022-11-15T04:07:42;100539.31;;;8.63;100.00
65173;BME280;51758;52.218;5.172;2022-11-15T04:10:11;100535.72;;;8.64;100.00
65173;BME280;51758;52.218;5.172;2022-11-15T04:12:40;100525.81;;;8.68;100.00
65173;BME280;51758;52.218;5.172;2022-11-15T04:15:11;100512.97;;;8.66;100.00
65173;BME280;51758;52.218;5.172;2022-11-15T04:17:40;100518.09;;;8.74;100.00
65173;BME280;51758;52.218;5.172;2022-11-15T04:20:11;100518.09;;;8.74;100.00
65173;BME280;51758;52.218;5.172;2022-11-15T04:23:00;100516.84;;;8.70;100.00
65173;BME280;51758;52.218;5.172;2022-11-15T04:25:46;100524.59;;;8.78;100.00
65173;BME280;51758;52.218;5.172;2022-11-15T04:28:16;100519.84;;;8.82;100.00
65173;BME280;51758;52.218;5.172;2022-11-15T04:30:44;100519.22;;;8.80;100.00
65173;BME280;51758;52.218;5.172;2022-11-15T04:33:12;100515.78;;;8.79;100.00
65173;BME280;51758;52.218;5.172;2022-11-15T04:35:40;100521.13;;;8.86;100.00
65173;BME280;51758;52.218;5.172;2022-11-15T04:38:10;100514.13;;;8.86;100.00
65173;BME280;51758;52.218;5.172;2022-11-15T04:40:37;100515.38;;;8.90;100.00
65173;BME280;51758;52.218;5.172;2022-11-15T04:43:05;100518.63;;;8.92;100.00
65173;BME280;51758;52.218;5.172;2022-11-15T04:45:32;100503.00;;;8.92;100.00
65173;BME280;51758;52.218;5.172;2022-11-15T04:48:00;100502.03;;;8.93;100.00
65173;BME280;51758;52.218;5.172;2022-11-15T04:50:27;100511.09;;;8.97;100.00
65173;BME280;51758;52.218;5.172;2022-11-15T04:52:55;100514.69;;;8.96;100.00
65173;BME280;51758;52.218;5.172;2022-11-15T04:55:24;100510.13;;;8.98;100.00
65173;BME280;51758;52.218;5.172;2022-11-15T04:57:58;100511.28;;;8.96;100.00
65173;BME280;51758;52.218;5.172;2022-11-15T05:00:28;100518.91;;;8.97;100.00
65173;BME280;51758;52.218;5.172;2022-11-15T05:02:56;100522.13;;;8.99;100.00
65173;BME280;51758;52.218;5.172;2022-11-15T05:05:42;100523.16;;;8.98;100.00
65173;BME280;51758;52.218;5.172;2022-11-15T05:08:09;100516.75;;;9.01;100.00
65173;BME280;51758;52.218;5.172;2022-11-15T05:10:38;100517.56;;;9.02;100.00
65173;BME280;51758;52.218;5.172;2022-11-15T05:13:06;100525.66;;;9.07;100.00
65173;BME280;51758;52.218;5.172;2022-11-15T05:15:33;100529.72;;;9.09;100.00
65173;BME280;51758;52.218;5.172;2022-11-15T05:18:01;100523.38;;;9.12;100.00
65173;BME280;51758;52.218;5.172;2022-11-15T05:20:28;100533.06;;;9.18;100.00
65173;BME280;51758;52.218;5.172;2022-11-15T05:22:56;100526.97;;;9.25;100.00
65173;BME280;51758;52.218;5.172;2022-11-15T05:25:24;100529.22;;;9.28;100.00
65173;BME280;51758;52.218;5.172;2022-11-15T05:27:53;100539.13;;;9.33;100.00
65173;BME280;51758;52.218;5.172;2022-11-15T05:30:21;100532.94;;;9.34;100.00
65173;BME280;51758;52.218;5.172;2022-11-15T05:32:49;100528.16;;;9.38;100.00
65173;BME280;51758;52.218;5.172;2022-11-15T05:35:21;100527.00;;;9.40;100.00
65173;BME280;51758;52.218;5.172;2022-11-15T05:37:53;100530.88;;;9.44;100.00
65173;BME280;51758;52.218;5.172;2022-11-15T05:40:21;100535.09;;;9.45;100.00
65173;BME280;51758;52.218;5.172;2022-11-15T05:42:48;100538.75;;;9.51;100.00
65173;BME280;51758;52.218;5.172;2022-11-15T05:45:17;100536.63;;;9.54;100.00
65173;BME280;51758;52.218;5.172;2022-11-15T05:47:52;100541.50;;;9.57;100.00
65173;BME280;51758;52.218;5.172;2022-11-15T05:50:21;100538.78;;;9.65;100.00
65173;BME280;51758;52.218;5.172;2022-11-15T05:52:49;100544.00;;;9.65;100.00
65173;BME280;51758;52.218;5.172;2022-11-15T05:55:17;100527.13;;;9.61;100.00
65173;BME280;51758;52.218;5.172;2022-11-15T05:57:45;100537.16;;;9.64;100.00
65173;BME280;51758;52.218;5.172;2022-11-15T06:00:13;100534.03;;;9.69;100.00
65173;BME280;51758;52.218;5.172;2022-11-15T06:02:42;100534.50;;;9.73;100.00
65173;BME280;51758;52.218;5.172;2022-11-15T06:05:10;100533.50;;;9.74;100.00
65173;BME280;51758;52.218;5.172;2022-11-15T06:07:37;100540.34;;;9.75;100.00
65173;BME280;51758;52.218;5.172;2022-11-15T06:10:06;100544.81;;;9.81;100.00
65173;BME280;51758;52.218;5.172;2022-11-15T06:12:34;100547.44;;;9.81;100.00
65173;BME280;51758;52.218;5.172;2022-11-15T06:15:01;100545.28;;;9.84;100.00
65173;BME280;51758;52.218;5.172;2022-11-15T06:17:29;100542.50;;;9.86;100.00
65173;BME280;51758;52.218;5.172;2022-11-15T06:19:58;100548.34;;;9.88;100.00
65173;BME280;51758;52.218;5.172;2022-11-15T06:22:25;100549.13;;;9.88;100.00
65173;BME280;51758;52.218;5.172;2022-11-15T06:24:53;100544.72;;;9.89;100.00
65173;BME280;51758;52.218;5.172;2022-11-15T06:27:21;100546.50;;;9.88;100.00
65173;BME280;51758;52.218;5.172;2022-11-15T06:29:49;100552.75;;;9.87;100.00
65173;BME280;51758;52.218;5.172;2022-11-15T06:32:16;100550.13;;;9.87;100.00
65173;BME280;51758;52.218;5.172;2022-11-15T06:34:44;100555.16;;;9.89;100.00
65173;BME280;51758;52.218;5.172;2022-11-15T06:37:13;100550.94;;;9.88;100.00
65173;BME280;51758;52.218;5.172;2022-11-15T06:39:40;100557.97;;;9.87;100.00
65173;BME280;51758;52.218;5.172;2022-11-15T06:42:08;100559.13;;;9.85;100.00
65173;BME280;51758;52.218;5.172;2022-11-15T06:44:36;100559.75;;;9.87;100.00
65173;BME280;51758;52.218;5.172;2022-11-15T06:47:03;100561.56;;;9.86;100.00
65173;BME280;51758;52.218;5.172;2022-11-15T06:49:31;100566.59;;;9.88;100.00
65173;BME280;51758;52.218;5.172;2022-11-15T06:51:59;100566.59;;;9.88;100.00
65173;BME280;51758;52.218;5.172;2022-11-15T06:54:28;100567.59;;;9.87;100.00
65173;BME280;51758;52.218;5.172;2022-11-15T06:56:55;100569.19;;;9.88;100.00
65173;BME280;51758;52.218;5.172;2022-11-15T06:59:23;100578.25;;;9.92;100.00
65173;BME280;51758;52.218;5.172;2022-11-15T07:01:50;100571.00;;;9.87;100.00
65173;BME280;51758;52.218;5.172;2022-11-15T07:04:18;100572.25;;;9.91;100.00
65173;BME280;51758;52.218;5.172;2022-11-15T07:06:46;100565.84;;;9.94;100.00
65173;BME280;51758;52.218;5.172;2022-11-15T07:09:14;100573.97;;;9.99;100.00
65173;BME280;51758;52.218;5.172;2022-11-15T07:11:43;100571.72;;;9.96;100.00
65173;BME280;51758;52.218;5.172;2022-11-15T07:14:11;100576.66;;;9.91;100.00
65173;BME280;51758;52.218;5.172;2022-11-15T07:16:40;100580.06;;;9.91;100.00
65173;BME280;51758;52.218;5.172;2022-11-15T07:19:09;100572.59;;;9.88;100.00
65173;BME280;51758;52.218;5.172;2022-11-15T07:21:37;100576.66;;;9.91;100.00
65173;BME280;51758;52.218;5.172;2022-11-15T07:24:06;100560.72;;;9.71;100.00
65173;BME280;51758;52.218;5.172;2022-11-15T07:26:35;100584.75;;;9.81;100.00
65173;BME280;51758;52.218;5.172;2022-11-15T07:29:05;100586.81;;;9.86;100.00
65173;BME280;51758;52.218;5.172;2022-11-15T07:31:33;100587.34;;;9.81;100.00
65173;BME280;51758;52.218;5.172;2022-11-15T07:34:02;100589.78;;;9.83;100.00
65173;BME280;51758;52.218;5.172;2022-11-15T07:36:30;100593.72;;;9.79;100.00
65173;BME280;51758;52.218;5.172;2022-11-15T07:38:59;100584.44;;;9.76;100.00
65173;BME280;51758;52.218;5.172;2022-11-15T07:41:28;100581.66;;;9.78;100.00
65173;BME280;51758;52.218;5.172;2022-11-15T07:43:57;100570.00;;;9.74;100.00
65173;BME280;51758;52.218;5.172;2022-11-15T07:46:27;100575.81;;;9.76;100.00
65173;BME280;51758;52.218;5.172;2022-11-15T07:48:55;100573.66;;;9.79;100.00
65173;BME280;51758;52.218;5.172;2022-11-15T07:51:24;100578.06;;;9.79;100.00
65173;BME280;51758;52.218;5.172;2022-11-15T07:53:53;100572.88;;;9.79;100.00
65173;BME280;51758;52.218;5.172;2022-11-15T07:56:21;100582.47;;;9.78;100.00
65173;BME280;51758;52.218;5.172;2022-11-15T07:58:48;100571.06;;;9.79;100.00
65173;BME280;51758;52.218;5.172;2022-11-15T08:01:16;100579.25;;;9.76;100.00
65173;BME280;51758;52.218;5.172;2022-11-15T08:03:45;100572.22;;;9.77;100.00
65173;BME280;51758;52.218;5.172;2022-11-15T08:06:13;100568.38;;;9.73;100.00
65173;BME280;51758;52.218;5.172;2022-11-15T08:08:40;100566.41;;;9.75;100.00
65173;BME280;51758;52.218;5.172;2022-11-15T08:11:08;100565.38;;;9.76;100.00
65173;BME280;51758;52.218;5.172;2022-11-15T08:13:36;100560.00;;;9.77;100.00
65173;BME280;51758;52.218;5.172;2022-11-15T08:16:04;100563.53;;;9.84;100.00
65173;BME280;51758;52.218;5.172;2022-11-15T08:18:32;100561.97;;;9.90;100.00
65173;BME280;51758;52.218;5.172;2022-11-15T08:21:01;100568.28;;;9.81;100.00
65173;BME280;51758;52.218;5.172;2022-11-15T08:23:29;100560.09;;;9.84;100.00
65173;BME280;51758;52.218;5.172;2022-11-15T08:25:59;100566.22;;;9.91;100.00
65173;BME280;51758;52.218;5.172;2022-11-15T08:28:27;100560.91;;;9.84;100.00
65173;BME280;51758;52.218;5.172;2022-11-15T08:30:55;100561.00;;;9.91;100.00
65173;BME280;51758;52.218;5.172;2022-11-15T08:33:23;100551.94;;;9.87;100.00
65173;BME280;51758;52.218;5.172;2022-11-15T08:35:51;100545.72;;;9.88;100.00
65173;BME280;51758;52.218;5.172;2022-11-15T08:38:20;100540.94;;;9.91;100.00
65173;BME280;51758;52.218;5.172;2022-11-15T08:40:48;100535.91;;;9.90;100.00
65173;BME280;51758;52.218;5.172;2022-11-15T08:43:16;100538.16;;;9.93;100.00
65173;BME280;51758;52.218;5.172;2022-11-15T08:45:43;100532.94;;;9.93;100.00
65173;BME280;51758;52.218;5.172;2022-11-15T08:48:12;100532.78;;;9.94;100.00
65173;BME280;51758;52.218;5.172;2022-11-15T08:50:39;100525.47;;;9.90;100.00
65173;BME280;51758;52.218;5.172;2022-11-15T08:53:07;100531.31;;;9.92;100.00
65173;BME280;51758;52.218;5.172;2022-11-15T08:55:37;100537.00;;;9.95;100.00
65173;BME280;51758;52.218;5.172;2022-11-15T08:58:06;100537.19;;;9.94;100.00
65173;BME280;51758;52.218;5.172;2022-11-15T09:00:34;100536.00;;;9.96;100.00
65173;BME280;51758;52.218;5.172;2022-11-15T09:03:03;100537.28;;;10.00;100.00
65173;BME280;51758;52.218;5.172;2022-11-15T09:05:31;100534.28;;;10.03;100.00
65173;BME280;51758;52.218;5.172;2022-11-15T09:07:59;100535.59;;;10.14;100.00
65173;BME280;51758;52.218;5.172;2022-11-15T09:10:40;100537.22;;;10.15;100.00
65173;BME280;51758;52.218;5.172;2022-11-15T09:13:08;100528.41;;;10.16;100.00
65173;BME280;51758;52.218;5.172;2022-11-15T09:15:35;100525.19;;;10.14;100.00
65173;BME280;51758;52.218;5.172;2022-11-15T09:18:03;100516.31;;;10.23;100.00
65173;BME280;51758;52.218;5.172;2022-11-15T09:20:31;100491.91;;;10.16;100.00
65173;BME280;51758;52.218;5.172;2022-11-15T09:23:00;100517.44;;;10.35;100.00
65173;BME280;51758;52.218;5.172;2022-11-15T09:25:28;100507.00;;;10.35;100.00
65173;BME280;51758;52.218;5.172;2022-11-15T09:27:57;100497.88;;;10.25;100.00
65173;BME280;51758;52.218;5.172;2022-11-15T09:30:25;100502.34;;;10.31;100.00
65173;BME280;51758;52.218;5.172;2022-11-15T09:32:53;100506.88;;;10.44;100.00
65173;BME280;51758;52.218;5.172;2022-11-15T09:35:20;100509.94;;;10.47;100.00
65173;BME280;51758;52.218;5.172;2022-11-15T09:37:48;100510.56;;;10.49;100.00
65173;BME280;51758;52.218;5.172;2022-11-15T09:40:21;100503.16;;;10.53;100.00
65173;BME280;51758;52.218;5.172;2022-11-15T09:43:05;100513.06;;;10.57;100.00
65173;BME280;51758;52.218;5.172;2022-11-15T09:45:41;100497.44;;;10.64;100.00
65173;BME280;51758;52.218;5.172;2022-11-15T09:48:42;100495.44;;;10.66;100.00
65173;BME280;51758;52.218;5.172;2022-11-15T09:51:21;100510.75;;;10.69;100.00
65173;BME280;51758;52.218;5.172;2022-11-15T09:53:56;100488.06;;;10.69;100.00
65173;BME280;51758;52.218;5.172;2022-11-15T09:56:44;100515.47;;;10.80;100.00
65173;BME280;51758;52.218;5.172;2022-11-15T09:59:43;100503.22;;;10.81;100.00
65173;BME280;51758;52.218;5.172;2022-11-15T10:02:22;100503.47;;;10.86;100.00
65173;BME280;51758;52.218;5.172;2022-11-15T10:04:57;100511.72;;;10.89;100.00
65173;BME280;51758;52.218;5.172;2022-11-15T10:07:30;100502.59;;;10.78;100.00
65173;BME280;51758;52.218;5.172;2022-11-15T10:10:04;100507.47;;;10.82;100.00
65173;BME280;51758;52.218;5.172;2022-11-15T10:12:36;100496.34;;;10.73;100.00
65173;BME280;51758;52.218;5.172;2022-11-15T10:15:09;100503.03;;;10.82;100.00
65173;BME280;51758;52.218;5.172;2022-11-15T10:18:04;100502.72;;;10.92;100.00
65173;BME280;51758;52.218;5.172;2022-11-15T10:20:41;100501.78;;;10.78;100.00
65173;BME280;51758;52.218;5.172;2022-11-15T10:23:11;100502.78;;;10.77;100.00
65173;BME280;51758;52.218;5.172;2022-11-15T10:25:40;100500.78;;;10.79;100.00
65173;BME280;51758;52.218;5.172;2022-11-15T10:28:13;100495.38;;;10.81;100.00
65173;BME280;51758;52.218;5.172;2022-11-15T10:30:45;100493.22;;;10.84;100.00
65173;BME280;51758;52.218;5.172;2022-11-15T10:33:25;100499.75;;;10.95;100.00
65173;BME280;51758;52.218;5.172;2022-11-15T10:36:21;100480.19;;;10.91;100.00
65173;BME280;51758;52.218;5.172;2022-11-15T10:38:55;100463.50;;;10.85;100.00
65173;BME280;51758;52.218;5.172;2022-11-15T10:41:36;100466.44;;;11.03;100.00
65173;BME280;51758;52.218;5.172;2022-11-15T10:44:22;100477.50;;;11.05;100.00
65173;BME280;51758;52.218;5.172;2022-11-15T10:47:25;100443.75;;;11.04;100.00
65173;BME280;51758;52.218;5.172;2022-11-15T10:50:02;100453.78;;;11.00;100.00
65173;BME280;51758;52.218;5.172;2022-11-15T10:52:31;100454.63;;;11.07;100.00
65173;BME280;51758;52.218;5.172;2022-11-15T10:55:04;100449.22;;;11.09;100.00
65173;BME280;51758;52.218;5.172;2022-11-15T10:57:36;100443.03;;;11.17;100.00
65173;BME280;51758;52.218;5.172;2022-11-15T11:00:07;100452.00;;;11.07;100.00
65173;BME280;51758;52.218;5.172;2022-11-15T11:02:38;100446.50;;;11.24;100.00
65173;BME280;51758;52.218;5.172;2022-11-15T11:05:25;100443.28;;;11.22;100.00
65173;BME280;51758;52.218;5.172;2022-11-15T11:07:56;100446.34;;;11.32;100.00
65173;BME280;51758;52.218;5.172;2022-11-15T11:10:24;100436.44;;;11.27;100.00
65173;BME280;51758;52.218;5.172;2022-11-15T11:13:20;100440.53;;;11.36;100.00
65173;BME280;51758;52.218;5.172;2022-11-15T11:15:53;100430.22;;;11.28;100.00
65173;BME280;51758;52.218;5.172;2022-11-15T11:18:27;100435.13;;;11.38;100.00
65173;BME280;51758;52.218;5.172;2022-11-15T11:20:58;100427.28;;;11.38;100.00
65173;BME280;51758;52.218;5.172;2022-11-15T11:23:38;100425.88;;;11.35;100.00
65173;BME280;51758;52.218;5.172;2022-11-15T11:26:24;100422.44;;;11.35;100.00
65173;BME280;51758;52.218;5.172;2022-11-15T11:29:02;100429.03;;;11.31;100.00
65173;BME280;51758;52.218;5.172;2022-11-15T11:31:40;100447.59;;;11.36;100.00
65173;BME280;51758;52.218;5.172;2022-11-15T11:34:23;100435.25;;;11.30;100.00
65173;BME280;51758;52.218;5.172;2022-11-15T11:37:04;100433.72;;;11.42;100.00
65173;BME280;51758;52.218;5.172;2022-11-15T11:39:44;100428.75;;;11.47;100.00
65173;BME280;51758;52.218;5.172;2022-11-15T11:42:26;100404.75;;;11.37;100.00
65173;BME280;51758;52.218;5.172;2022-11-15T11:45:05;100420.28;;;11.45;100.00
65173;BME280;51758;52.218;5.172;2022-11-15T11:47:39;100425.13;;;11.48;100.00
65173;BME280;51758;52.218;5.172;2022-11-15T11:50:14;100422.97;;;11.58;100.00
65173;BME280;51758;52.218;5.172;2022-11-15T11:52:45;100417.34;;;11.61;100.00
65173;BME280;51758;52.218;5.172;2022-11-15T11:55:21;100383.50;;;11.53;100.00
65173;BME280;51758;52.218;5.172;2022-11-15T11:57:55;100388.59;;;11.61;100.00
65173;BME280;51758;52.218;5.172;2022-11-15T12:00:28;100375.31;;;11.69;100.00
65173;BME280;51758;52.218;5.172;2022-11-15T12:03:07;100376.47;;;11.54;100.00
65173;BME280;51758;52.218;5.172;2022-11-15T12:05:40;100369.66;;;11.59;100.00
65173;BME280;51758;52.218;5.172;2022-11-15T12:08:22;100370.91;;;11.63;100.00
65173;BME280;51758;52.218;5.172;2022-11-15T12:10:54;100368.91;;;11.72;100.00
65173;BME280;51758;52.218;5.172;2022-11-15T12:13:25;100371.28;;;11.60;100.00
65173;BME280;51758;52.218;5.172;2022-11-15T12:15:59;100371.28;;;11.67;100.00
65173;BME280;51758;52.218;5.172;2022-11-15T12:18:35;100364.53;;;11.79;100.00
65173;BME280;51758;52.218;5.172;2022-11-15T12:21:08;100356.47;;;11.80;100.00
65173;BME280;51758;52.218;5.172;2022-11-15T12:23:44;100343.75;;;11.64;100.00
65173;BME280;51758;52.218;5.172;2022-11-15T12:26:17;100349.00;;;11.71;100.00
65173;BME280;51758;52.218;5.172;2022-11-15T12:28:49;100337.31;;;11.67;100.00
65173;BME280;51758;52.218;5.172;2022-11-15T12:31:37;100336.31;;;11.68;100.00
65173;BME280;51758;52.218;5.172;2022-11-15T12:34:15;100338.78;;;11.82;100.00
65173;BME280;51758;52.218;5.172;2022-11-15T12:36:57;100334.78;;;11.87;100.00
65173;BME280;51758;52.218;5.172;2022-11-15T12:42:41;100317.06;;;11.82;100.00
65173;BME280;51758;52.218;5.172;2022-11-15T12:45:25;100322.50;;;11.87;100.00
65173;BME280;51758;52.218;5.172;2022-11-15T12:47:53;100313.44;;;11.83;100.00
65173;BME280;51758;52.218;5.172;2022-11-15T12:50:53;100313.03;;;11.93;100.00
65173;BME280;51758;52.218;5.172;2022-11-15T12:53:29;100307.41;;;11.96;100.00
65173;BME280;51758;52.218;5.172;2022-11-15T12:56:24;100305.38;;;11.91;100.00
65173;BME280;51758;52.218;5.172;2022-11-15T12:58:55;100297.56;;;11.98;100.00
65173;BME280;51758;52.218;5.172;2022-11-15T13:01:55;100295.97;;;12.10;100.00
65173;BME280;51758;52.218;5.172;2022-11-15T13:04:27;100282.69;;;12.11;100.00
65173;BME280;51758;52.218;5.172;2022-11-15T13:06:57;100288.91;;;12.04;100.00
65173;BME280;51758;52.218;5.172;2022-11-15T13:09:54;100280.25;;;12.03;100.00
65173;BME280;51758;52.218;5.172;2022-11-15T13:12:54;100288.50;;;12.07;100.00
65173;BME280;51758;52.218;5.172;2022-11-15T13:15:34;100276.63;;;12.04;100.00
65173;BME280;51758;52.218;5.172;2022-11-15T13:18:34;100288.50;;;12.00;100.00
65173;BME280;51758;52.218;5.172;2022-11-15T13:21:05;100274.63;;;12.06;100.00
65173;BME280;51758;52.218;5.172;2022-11-15T13:23:58;100270.78;;;11.96;100.00